createdAt,value
2022-08-05T00:00:46.307Z,0.00
2022-08-05T00:01:49.152Z,0.00
2022-08-05T00:02:38.885Z,0.00
2022-08-05T00:03:39.328Z,0.00
2022-08-05T00:04:37.900Z,0.00
2022-08-05T00:06:05.410Z,0.00
2022-08-05T00:06:38.783Z,0.00
2022-08-05T00:08:00.756Z,0.00
2022-08-05T00:08:38.864Z,0.00
2022-08-05T00:09:37.789Z,0.00
2022-08-05T00:10:37.742Z,0.00
2022-08-05T00:11:49.544Z,0.00
2022-08-05T00:12:55.787Z,0.00
2022-08-05T00:13:40.048Z,0.00
2022-08-05T00:14:37.696Z,0.00
2022-08-05T00:15:57.603Z,0.00
2022-08-05T00:16:52.622Z,0.00
2022-08-05T00:17:38.662Z,0.00
2022-08-05T00:18:37.992Z,0.00
2022-08-05T00:19:44.050Z,0.00
2022-08-05T00:20:38.629Z,0.00
2022-08-05T00:21:37.619Z,0.00
2022-08-05T00:22:37.612Z,0.00
2022-08-05T00:23:45.745Z,0.00
2022-08-05T00:24:38.600Z,0.00
2022-08-05T00:25:46.120Z,0.00
2022-08-05T00:26:38.565Z,0.00
2022-08-05T00:27:37.709Z,0.00
2022-08-05T00:28:38.544Z,0.00
2022-08-05T00:29:38.402Z,0.00
2022-08-05T00:30:37.521Z,0.00
2022-08-05T00:31:54.265Z,0.00
2022-08-05T00:32:38.501Z,0.00
2022-08-05T00:34:43.382Z,0.00
2022-08-05T00:34:53.259Z,0.00
2022-08-05T00:35:38.465Z,0.00
2022-08-05T00:37:12.909Z,0.00
2022-08-05T00:37:53.221Z,0.00
2022-08-05T00:38:38.435Z,0.00
2022-08-05T00:39:44.282Z,0.00
2022-08-05T00:40:38.426Z,0.00
2022-08-05T00:41:55.093Z,0.00
2022-08-05T00:42:38.392Z,0.00
2022-08-05T00:43:41.750Z,0.00
2022-08-05T00:44:38.633Z,0.00
2022-08-05T00:45:43.168Z,0.00
2022-08-05T00:46:43.667Z,0.00
2022-08-05T00:47:56.494Z,0.00
2022-08-05T00:48:50.257Z,0.00
2022-08-05T00:49:44.373Z,0.00
2022-08-05T00:50:38.324Z,0.00
2022-08-05T00:51:51.853Z,0.00
2022-08-05T00:52:39.140Z,0.00
2022-08-05T00:53:45.465Z,0.00
2022-08-05T00:54:38.264Z,0.00
2022-08-05T00:55:43.513Z,0.00
2022-08-05T00:56:38.236Z,0.00
2022-08-05T00:57:58.269Z,0.00
2022-08-05T00:58:38.232Z,0.00
2022-08-05T00:59:44.324Z,0.00
2022-08-05T01:00:38.261Z,0.00
2022-08-05T01:01:42.574Z,0.00
2022-08-05T01:02:38.177Z,0.00
2022-08-05T01:03:37.182Z,0.00
2022-08-05T01:04:37.154Z,0.00
2022-08-05T01:05:38.329Z,0.00
2022-08-05T01:06:37.131Z,0.00
2022-08-05T01:07:37.116Z,0.00
2022-08-05T01:08:43.418Z,0.00
2022-08-05T01:09:38.096Z,0.00
2022-08-05T01:10:37.083Z,0.00
2022-08-05T01:11:37.685Z,0.00
2022-08-05T01:12:37.064Z,0.00
2022-08-05T01:13:58.403Z,0.00
2022-08-05T01:14:38.040Z,0.00
2022-08-05T01:15:37.046Z,0.00
2022-08-05T01:16:38.020Z,0.00
2022-08-05T01:17:40.317Z,0.00
2022-08-05T01:18:38.061Z,0.00
2022-08-05T01:20:01.160Z,0.00
2022-08-05T01:20:37.978Z,0.00
2022-08-05T01:21:37.808Z,0.00
2022-08-05T01:22:36.951Z,0.00
2022-08-05T01:23:36.942Z,0.00
2022-08-05T01:24:36.954Z,0.00
2022-08-05T01:25:40.690Z,0.00
2022-08-05T01:26:36.913Z,0.00
2022-08-05T01:27:40.974Z,0.00
2022-08-05T01:28:37.888Z,0.00
2022-08-05T01:29:36.895Z,0.00
2022-08-05T01:30:36.866Z,0.00
2022-08-05T01:31:42.538Z,0.00
2022-08-05T01:32:37.845Z,0.00
2022-08-05T01:33:36.874Z,0.00
2022-08-05T01:34:36.826Z,0.00
2022-08-05T01:35:52.010Z,0.00
2022-08-05T01:36:42.172Z,0.00
2022-08-05T01:37:37.787Z,0.00
2022-08-05T01:38:37.796Z,0.00
2022-08-05T01:39:46.548Z,0.00
2022-08-05T01:40:37.754Z,0.00
2022-08-05T01:41:37.606Z,0.00
2022-08-05T01:42:36.734Z,0.00
2022-08-05T01:43:36.755Z,0.00
2022-08-05T01:44:36.716Z,0.00
2022-08-05T01:45:43.061Z,0.00
2022-08-05T01:46:42.809Z,0.00
2022-08-05T01:47:39.468Z,0.00
2022-08-05T01:48:36.670Z,0.00
2022-08-05T01:50:00.048Z,0.00
2022-08-05T01:50:37.649Z,0.00
2022-08-05T01:51:36.638Z,0.00
2022-08-05T01:52:36.647Z,0.00
2022-08-05T01:53:54.849Z,0.00
2022-08-05T01:54:46.201Z,0.00
2022-08-05T01:55:37.587Z,0.00
2022-08-05T01:58:11.254Z,0.00
2022-08-05T01:58:12.657Z,0.00
2022-08-05T01:58:45.217Z,0.00
2022-08-05T01:59:37.562Z,0.00
2022-08-05T02:00:36.540Z,0.00
2022-08-05T02:01:39.971Z,0.00
2022-08-05T02:02:36.619Z,0.00
2022-08-05T02:03:37.501Z,0.00
2022-08-05T02:04:36.515Z,0.00
2022-08-05T02:05:36.669Z,0.00
2022-08-05T02:06:38.326Z,0.00
2022-08-05T02:07:36.523Z,0.00
2022-08-05T02:08:40.828Z,0.00
2022-08-05T02:09:37.489Z,0.00
2022-08-05T02:10:36.426Z,0.00
2022-08-05T02:11:41.996Z,0.00
2022-08-05T02:12:37.407Z,0.00
2022-08-05T02:13:53.152Z,0.00
2022-08-05T02:14:37.381Z,0.00
2022-08-05T02:15:36.387Z,0.00
2022-08-05T02:16:36.361Z,0.00
2022-08-05T02:18:28.495Z,0.00
2022-08-05T02:18:37.646Z,0.00
2022-08-05T02:19:36.327Z,0.00
2022-08-05T02:20:39.136Z,0.00
2022-08-05T02:21:43.236Z,0.00
2022-08-05T02:22:37.295Z,0.00
2022-08-05T02:23:36.285Z,0.00
2022-08-05T02:24:36.298Z,0.00
2022-08-05T02:25:49.839Z,0.00
2022-08-05T02:26:37.294Z,0.00
2022-08-05T02:27:58.378Z,0.00
2022-08-05T02:28:41.496Z,0.00
2022-08-05T02:29:59.408Z,0.00
2022-08-05T02:30:37.325Z,0.00
2022-08-05T02:31:37.196Z,0.00
2022-08-05T02:32:36.183Z,0.00
2022-08-05T02:33:38.395Z,0.00
2022-08-05T02:34:36.166Z,0.00
2022-08-05T02:35:38.155Z,0.00
2022-08-05T02:36:37.139Z,0.00
2022-08-05T02:37:36.299Z,0.00
2022-08-05T02:38:36.122Z,0.00
2022-08-05T02:39:36.171Z,0.00
2022-08-05T02:40:37.110Z,0.00
2022-08-05T02:41:58.274Z,0.00
2022-08-05T02:42:37.073Z,0.00
2022-08-05T02:43:36.061Z,0.00
2022-08-05T02:44:37.053Z,0.00
2022-08-05T02:45:52.366Z,0.00
2022-08-05T02:46:53.779Z,0.00
2022-08-05T02:47:58.698Z,0.00
2022-08-05T02:48:37.009Z,0.00
2022-08-05T02:49:37.699Z,0.00
2022-08-05T02:50:36.026Z,0.00
2022-08-05T02:52:03.067Z,4.00
2022-08-05T02:52:36.962Z,4.00
2022-08-05T02:53:39.528Z,0.00
2022-08-05T02:54:37.387Z,0.00
2022-08-05T02:55:54.454Z,4.00
2022-08-05T02:56:36.937Z,4.00
2022-08-05T02:58:11.266Z,4.00
2022-08-05T02:58:36.895Z,4.00
2022-08-05T02:59:50.176Z,4.00
2022-08-05T03:00:36.880Z,8.00
2022-08-05T03:01:35.880Z,8.00
2022-08-05T03:02:35.857Z,8.00
2022-08-05T03:04:02.044Z,8.00
2022-08-05T03:04:37.129Z,8.00
2022-08-05T03:06:54.362Z,12.00
2022-08-05T03:06:55.040Z,8.00
2022-08-05T03:07:59.392Z,16.00
2022-08-05T03:08:36.786Z,16.00
2022-08-05T03:09:38.165Z,16.00
2022-08-05T03:10:36.765Z,20.00
2022-08-05T03:11:55.277Z,24.00
2022-08-05T03:12:36.741Z,28.00
2022-08-05T03:13:51.987Z,32.00
2022-08-05T03:14:45.737Z,36.00
2022-08-05T03:15:36.709Z,40.00
2022-08-05T03:16:35.919Z,44.00
2022-08-05T03:17:41.683Z,52.00
2022-08-05T03:18:36.696Z,60.00
2022-08-05T03:19:36.663Z,68.00
2022-08-05T03:20:35.653Z,76.00
2022-08-05T03:21:41.701Z,84.00
2022-08-05T03:22:36.634Z,96.00
2022-08-05T03:23:35.641Z,104.00
2022-08-05T03:24:35.615Z,116.00
2022-08-05T03:26:04.339Z,128.00
2022-08-05T03:26:36.595Z,140.00
2022-08-05T03:27:57.608Z,156.00
2022-08-05T03:28:36.581Z,164.00
2022-08-05T03:29:45.880Z,176.00
2022-08-05T03:30:36.549Z,192.00
2022-08-05T03:31:56.000Z,204.00
2022-08-05T03:32:36.522Z,220.00
2022-08-05T03:33:51.473Z,236.00
2022-08-05T03:34:36.720Z,252.00
2022-08-05T03:35:41.510Z,268.00
2022-08-05T03:36:36.476Z,284.00
2022-08-05T03:37:45.778Z,296.00
2022-08-05T03:38:37.681Z,316.00
2022-08-05T03:39:57.689Z,336.00
2022-08-05T03:40:36.463Z,364.00
2022-08-05T03:41:38.647Z,384.00
2022-08-05T03:42:52.217Z,408.00
2022-08-05T03:44:08.729Z,424.00
2022-08-05T03:44:36.404Z,444.00
2022-08-05T03:45:58.238Z,468.00
2022-08-05T03:46:36.365Z,488.00
2022-08-05T03:47:41.194Z,512.00
2022-08-05T03:48:36.772Z,536.00
2022-08-05T03:49:51.813Z,568.00
2022-08-05T03:50:36.319Z,588.00
2022-08-05T03:52:38.007Z,608.00
2022-08-05T03:55:00.262Z,624.00
2022-08-05T03:55:51.303Z,640.00
2022-08-05T03:55:54.206Z,656.00
2022-08-05T03:56:05.628Z,676.00
2022-08-05T03:56:36.252Z,696.00
2022-08-05T03:57:42.294Z,724.00
2022-08-05T03:58:36.229Z,744.00
2022-08-05T03:59:47.354Z,772.00
2022-08-05T04:00:36.224Z,800.00
2022-08-05T04:01:35.290Z,828.00
2022-08-05T04:02:38.358Z,864.00
2022-08-05T04:03:35.176Z,904.00
2022-08-05T04:04:35.180Z,944.00
2022-08-05T04:05:35.157Z,992.00
2022-08-05T04:06:35.149Z,1040.00
2022-08-05T04:07:35.128Z,1088.00
2022-08-05T04:08:37.028Z,1132.00
2022-08-05T04:09:36.689Z,1172.00
2022-08-05T04:10:38.198Z,1216.00
2022-08-05T04:11:50.571Z,1268.00
2022-08-05T04:13:04.838Z,1352.00
2022-08-05T04:14:04.712Z,1412.00
2022-08-05T04:15:04.688Z,1472.00
2022-08-05T04:16:04.995Z,1544.00
2022-08-05T04:17:04.663Z,1616.00
2022-08-05T04:18:07.014Z,1688.00
2022-08-05T04:19:04.660Z,1772.00
2022-08-05T04:20:05.629Z,1844.00
2022-08-05T04:21:05.618Z,1920.00
2022-08-05T04:22:09.301Z,1992.00
2022-08-05T04:23:05.601Z,2056.00
2022-08-05T04:24:06.430Z,2124.00
2022-08-05T04:25:04.574Z,2212.00
2022-08-05T04:26:04.677Z,2300.00
2022-08-05T04:27:04.555Z,2376.00
2022-08-05T04:28:12.831Z,2428.00
2022-08-05T04:29:07.191Z,2468.00
2022-08-05T04:30:04.713Z,2528.00
2022-08-05T04:31:08.395Z,2608.00
2022-08-05T04:32:05.496Z,2708.00
2022-08-05T04:33:04.488Z,2804.00
2022-08-05T04:34:18.674Z,2896.00
2022-08-05T04:35:05.877Z,2988.00
2022-08-05T04:36:16.063Z,3072.00
2022-08-05T04:37:05.444Z,3152.00
2022-08-05T04:38:06.763Z,3216.00
2022-08-05T04:39:04.484Z,3260.00
2022-08-05T04:40:04.415Z,3308.00
2022-08-05T04:41:04.400Z,3352.00
2022-08-05T04:42:04.391Z,3396.00
2022-08-05T04:43:04.592Z,3460.00
2022-08-05T04:44:08.820Z,3560.00
2022-08-05T04:45:05.361Z,3676.00
2022-08-05T04:46:04.372Z,3800.00
2022-08-05T04:47:08.643Z,3924.00
2022-08-05T04:48:04.325Z,4032.00
2022-08-05T04:49:04.312Z,4176.00
2022-08-05T04:50:10.981Z,4368.00
2022-08-05T04:51:11.383Z,4548.00
2022-08-05T04:52:05.286Z,4724.00
2022-08-05T04:53:04.272Z,4880.00
2022-08-05T04:54:04.258Z,4984.00
2022-08-05T04:55:14.146Z,5032.00
2022-08-05T04:56:33.124Z,5072.00
2022-08-05T04:57:05.250Z,5160.00
2022-08-05T04:58:04.214Z,5280.00
2022-08-05T04:59:21.626Z,5428.00
2022-08-05T05:00:05.202Z,5552.00
2022-08-05T05:01:04.284Z,5688.00
2022-08-05T05:02:34.996Z,5868.00
2022-08-05T05:03:05.214Z,6068.00
2022-08-05T05:04:04.702Z,6256.00
2022-08-05T05:05:04.138Z,6408.00
2022-08-05T05:06:39.292Z,6556.00
2022-08-05T05:07:05.135Z,6668.00
2022-08-05T05:08:04.108Z,6744.00
2022-08-05T05:09:05.495Z,6792.00
2022-08-05T05:10:04.090Z,6672.00
2022-08-05T05:11:04.074Z,6444.00
2022-08-05T05:12:04.109Z,6188.00
2022-08-05T05:13:04.666Z,6004.00
2022-08-05T05:14:04.045Z,5932.00
2022-08-05T05:15:04.124Z,5952.00
2022-08-05T05:16:07.047Z,5992.00
2022-08-05T05:17:07.586Z,6036.00
2022-08-05T05:18:04.999Z,6012.00
2022-08-05T05:19:18.577Z,5976.00
2022-08-05T05:20:04.975Z,5972.00
2022-08-05T05:21:04.348Z,6012.00
2022-08-05T05:22:24.515Z,6020.00
2022-08-05T05:23:08.380Z,5988.00
2022-08-05T05:24:09.076Z,5920.00
2022-08-05T05:25:17.038Z,5888.00
2022-08-05T05:26:04.914Z,5880.00
2022-08-05T05:27:03.900Z,5872.00
2022-08-05T05:28:03.909Z,5864.00
2022-08-05T05:29:10.137Z,5888.00
2022-08-05T05:30:05.395Z,5980.00
2022-08-05T05:31:05.760Z,6032.00
2022-08-05T05:32:04.846Z,6052.00
2022-08-05T05:33:16.170Z,6164.00
2022-08-05T05:34:04.832Z,6348.00
2022-08-05T05:35:03.814Z,6524.00
2022-08-05T05:36:03.810Z,6732.00
2022-08-05T05:37:03.806Z,7008.00
2022-08-05T05:38:03.926Z,7272.00
2022-08-05T05:39:04.379Z,7292.00
2022-08-05T05:40:03.762Z,7140.00
2022-08-05T05:41:03.754Z,6960.00
2022-08-05T05:42:03.787Z,6724.00
2022-08-05T05:43:03.746Z,6436.00
2022-08-05T05:44:03.719Z,6172.00
2022-08-05T05:45:04.711Z,6012.00
2022-08-05T05:46:03.697Z,5952.00
2022-08-05T05:47:04.166Z,6128.00
2022-08-05T05:48:07.196Z,6456.00
2022-08-05T05:49:06.428Z,6748.00
2022-08-05T05:50:04.683Z,6892.00
2022-08-05T05:51:15.026Z,7024.00
2022-08-05T05:52:07.196Z,7092.00
2022-08-05T05:53:21.123Z,7144.00
2022-08-05T05:54:04.610Z,7108.00
2022-08-05T05:55:07.331Z,7068.00
2022-08-05T05:56:03.597Z,7000.00
2022-08-05T05:57:03.759Z,6944.00
2022-08-05T05:58:04.582Z,6876.00
2022-08-05T05:59:05.570Z,6856.00
2022-08-05T06:00:03.546Z,6684.00
2022-08-05T06:01:12.725Z,6244.00
2022-08-05T06:02:04.528Z,5580.00
2022-08-05T06:03:03.532Z,4960.00
2022-08-05T06:04:04.601Z,4544.00
2022-08-05T06:05:03.652Z,4340.00
2022-08-05T06:06:04.482Z,4220.00
2022-08-05T06:07:03.471Z,4104.00
2022-08-05T06:08:03.945Z,3972.00
2022-08-05T06:09:04.095Z,3844.00
2022-08-05T06:10:08.310Z,3840.00
2022-08-05T06:11:04.427Z,3944.00
2022-08-05T06:12:03.421Z,4228.00
2022-08-05T06:13:03.411Z,4720.00
2022-08-05T06:14:03.477Z,5436.00
2022-08-05T06:15:03.388Z,6276.00
2022-08-05T06:16:28.927Z,7208.00
2022-08-05T06:17:22.623Z,7912.00
2022-08-05T06:18:04.438Z,8596.00
2022-08-05T06:19:06.016Z,9360.00
2022-08-05T06:20:03.334Z,9608.00
2022-08-05T06:21:03.323Z,9460.00
2022-08-05T06:22:03.384Z,9128.00
2022-08-05T06:23:04.015Z,8768.00
2022-08-05T06:24:03.306Z,8624.00
2022-08-05T06:25:25.305Z,8664.00
2022-08-05T06:26:21.287Z,8732.00
2022-08-05T06:27:04.343Z,8700.00
2022-08-05T06:28:10.718Z,8604.00
2022-08-05T06:29:23.739Z,8844.00
2022-08-05T06:30:17.815Z,9304.00
2022-08-05T06:31:11.317Z,9556.00
2022-08-05T06:32:04.205Z,10268.00
2022-08-05T06:33:03.209Z,10400.00
2022-08-05T06:34:07.775Z,10796.00
2022-08-05T06:35:06.009Z,10688.00
2022-08-05T06:36:10.124Z,9768.00
2022-08-05T06:37:04.158Z,10056.00
2022-08-05T06:38:11.119Z,10224.00
2022-08-05T06:39:04.174Z,10760.00
2022-08-05T06:40:03.116Z,11912.00
2022-08-05T06:41:03.104Z,13692.00
2022-08-05T06:42:04.034Z,15228.00
2022-08-05T06:43:03.087Z,16416.00
2022-08-05T06:44:03.196Z,16672.00
2022-08-05T06:45:06.480Z,17344.00
2022-08-05T06:46:06.851Z,17920.00
2022-08-05T06:47:03.053Z,18720.00
2022-08-05T06:48:37.182Z,19584.00
2022-08-05T06:49:05.888Z,20256.00
2022-08-05T06:50:04.972Z,19392.00
2022-08-05T06:51:03.011Z,22784.00
2022-08-05T06:52:03.987Z,24192.00
2022-08-05T06:53:04.070Z,24416.00
2022-08-05T06:54:03.986Z,25312.00
2022-08-05T06:55:02.958Z,26304.00
2022-08-05T06:56:02.964Z,26784.00
2022-08-05T06:58:03.422Z,26528.00
2022-08-05T06:58:19.892Z,28480.00
2022-08-05T06:59:03.924Z,23424.00
2022-08-05T07:00:03.901Z,28128.00
2022-08-05T07:01:03.198Z,25184.00
2022-08-05T07:02:02.883Z,22208.00
2022-08-05T07:03:02.865Z,23744.00
2022-08-05T07:04:03.137Z,22080.00
2022-08-05T07:05:02.950Z,20960.00
2022-08-05T07:06:06.212Z,22784.00
2022-08-05T07:07:06.268Z,17216.00
2022-08-05T07:08:02.820Z,18112.00
2022-08-05T07:09:04.271Z,17376.00
2022-08-05T07:10:03.585Z,15896.00
2022-08-05T07:11:02.781Z,16416.00
2022-08-05T07:12:02.793Z,18080.00
2022-08-05T07:13:02.785Z,18016.00
2022-08-05T07:14:02.756Z,18400.00
2022-08-05T07:15:02.743Z,32832.00
2022-08-05T07:16:04.693Z,19104.00
2022-08-05T07:17:58.596Z,19168.00
2022-08-05T07:18:08.903Z,19360.00
2022-08-05T07:19:03.697Z,19808.00
2022-08-05T07:20:32.995Z,20480.00
2022-08-05T07:21:05.488Z,21664.00
2022-08-05T07:22:02.831Z,30624.00
2022-08-05T07:23:02.657Z,39808.00
2022-08-05T07:24:02.647Z,32576.00
2022-08-05T07:25:21.805Z,24960.00
2022-08-05T07:26:03.779Z,24512.00
2022-08-05T07:27:02.862Z,23552.00
2022-08-05T07:28:05.876Z,23776.00
2022-08-05T07:29:03.591Z,25024.00
2022-08-05T07:30:23.806Z,24000.00
2022-08-05T07:31:03.568Z,23744.00
2022-08-05T07:32:03.964Z,24512.00
2022-08-05T07:33:05.013Z,22208.00
2022-08-05T07:34:02.547Z,22400.00
2022-08-05T07:36:05.385Z,30272.00
2022-08-05T07:36:19.993Z,21408.00
2022-08-05T07:37:03.526Z,19360.00
2022-08-05T07:38:02.500Z,19648.00
2022-08-05T07:39:02.578Z,20576.00
2022-08-05T07:40:26.305Z,22048.00
2022-08-05T07:42:06.975Z,21088.00
2022-08-05T07:42:13.396Z,20224.00
2022-08-05T07:43:13.814Z,20928.00
2022-08-05T07:44:03.435Z,17760.00
2022-08-05T07:45:02.434Z,15412.00
2022-08-05T07:46:02.416Z,13880.00
2022-08-05T07:47:06.199Z,13548.00
2022-08-05T07:48:03.394Z,12392.00
2022-08-05T07:49:05.799Z,12164.00
2022-08-05T07:50:02.390Z,12192.00
2022-08-05T07:51:02.383Z,11744.00
2022-08-05T07:52:02.452Z,10516.00
2022-08-05T07:53:02.337Z,9800.00
2022-08-05T07:54:02.328Z,9452.00
2022-08-05T07:55:02.320Z,9336.00
2022-08-05T07:56:06.294Z,9432.00
2022-08-05T07:57:14.881Z,9612.00
2022-08-05T07:58:04.054Z,10376.00
2022-08-05T07:59:02.273Z,11340.00
2022-08-05T08:00:02.281Z,11928.00
2022-08-05T08:01:06.189Z,11916.00
2022-08-05T08:02:03.414Z,11276.00
2022-08-05T08:03:15.109Z,10436.00
2022-08-05T08:04:03.221Z,9336.00
2022-08-05T08:05:02.212Z,8116.00
2022-08-05T08:06:02.217Z,7164.00
2022-08-05T08:07:05.475Z,6480.00
2022-08-05T08:08:02.176Z,5640.00
2022-08-05T08:09:02.168Z,5172.00
2022-08-05T08:10:02.159Z,5076.00
2022-08-05T08:11:02.180Z,4960.00
2022-08-05T08:12:10.652Z,4860.00
2022-08-05T08:13:03.227Z,4800.00
2022-08-05T08:14:02.119Z,4900.00
2022-08-05T08:15:03.416Z,4980.00
2022-08-05T08:16:53.678Z,4816.00
2022-08-05T08:17:53.240Z,4816.00
2022-08-05T08:18:52.728Z,4848.00
2022-08-05T08:20:22.898Z,5072.00
2022-08-05T08:21:01.827Z,5780.00
2022-08-05T08:21:53.695Z,7256.00
2022-08-05T08:22:52.684Z,9844.00
2022-08-05T08:24:01.846Z,12724.00
2022-08-05T08:24:53.656Z,14232.00
2022-08-05T08:26:00.578Z,14820.00
2022-08-05T08:26:53.651Z,15256.00
2022-08-05T08:27:52.625Z,15972.00
2022-08-05T08:28:59.574Z,16800.00
2022-08-05T08:30:05.880Z,17600.00
2022-08-05T08:30:53.591Z,18176.00
2022-08-05T08:31:52.618Z,16608.00
2022-08-05T08:32:52.600Z,12208.00
2022-08-05T08:33:53.136Z,9740.00
2022-08-05T08:34:52.550Z,8352.00
2022-08-05T08:36:00.291Z,7576.00
2022-08-05T08:36:57.805Z,6932.00
2022-08-05T08:37:54.395Z,6508.00
2022-08-05T08:38:53.324Z,5920.00
2022-08-05T08:39:52.590Z,5196.00
2022-08-05T08:40:52.482Z,4836.00
2022-08-05T08:41:59.934Z,4524.00
2022-08-05T08:42:53.730Z,4400.00
2022-08-05T08:45:18.683Z,4128.00
2022-08-05T08:45:19.345Z,3896.00
2022-08-05T08:45:53.424Z,3712.00
2022-08-05T08:46:52.431Z,3444.00
2022-08-05T08:48:12.316Z,3136.00
2022-08-05T08:49:07.865Z,2820.00
2022-08-05T08:50:14.208Z,2656.00
2022-08-05T08:51:07.560Z,2612.00
2022-08-05T08:52:03.596Z,2724.00
2022-08-05T08:52:53.351Z,3032.00
2022-08-05T08:53:52.340Z,3440.00
2022-08-05T08:54:52.328Z,3696.00
2022-08-05T08:56:03.626Z,3792.00
2022-08-05T08:56:53.318Z,4032.00
2022-08-05T08:57:58.414Z,4408.00
2022-08-05T08:58:53.282Z,4688.00
2022-08-05T08:59:52.272Z,4808.00
2022-08-05T09:00:52.337Z,5108.00
2022-08-05T09:01:57.308Z,4816.00
2022-08-05T09:02:53.236Z,3772.00
2022-08-05T09:03:55.630Z,3332.00
2022-08-05T09:05:16.971Z,3256.00
2022-08-05T09:06:08.158Z,3356.00
2022-08-05T09:06:53.192Z,3780.00
2022-08-05T09:07:58.114Z,4076.00
2022-08-05T09:08:53.213Z,4188.00
2022-08-05T09:09:52.159Z,4556.00
2022-08-05T09:10:52.149Z,5428.00
2022-08-05T09:11:55.324Z,6728.00
2022-08-05T09:12:53.275Z,7916.00
2022-08-05T09:14:09.997Z,8408.00
2022-08-05T09:14:58.424Z,8720.00
2022-08-05T09:15:53.093Z,9120.00
2022-08-05T09:16:52.083Z,9444.00
2022-08-05T09:17:53.112Z,9792.00
2022-08-05T09:18:52.077Z,9736.00
2022-08-05T09:20:01.473Z,9780.00
2022-08-05T09:20:53.043Z,9780.00
2022-08-05T09:22:22.687Z,9240.00
2022-08-05T09:22:53.017Z,8880.00
2022-08-05T09:23:53.019Z,9716.00
2022-08-05T09:24:52.004Z,10756.00
2022-08-05T09:26:03.685Z,11196.00
2022-08-05T09:26:52.972Z,11520.00
2022-08-05T09:28:04.125Z,12096.00
2022-08-05T09:28:52.951Z,12888.00
2022-08-05T09:29:51.960Z,12916.00
2022-08-05T09:30:51.932Z,12480.00
2022-08-05T09:32:41.209Z,11968.00
2022-08-05T09:32:53.639Z,12260.00
2022-08-05T09:33:51.894Z,13112.00
2022-08-05T09:34:51.883Z,14352.00
2022-08-05T09:35:51.871Z,16164.00
2022-08-05T09:36:56.401Z,17024.00
2022-08-05T09:38:12.937Z,15008.00
2022-08-05T09:38:52.844Z,12836.00
2022-08-05T09:39:52.306Z,10420.00
2022-08-05T09:40:54.002Z,8456.00
2022-08-05T09:41:56.162Z,7872.00
2022-08-05T09:42:51.952Z,8236.00
2022-08-05T09:43:51.784Z,8564.00
2022-08-05T09:44:51.774Z,8944.00
2022-08-05T09:46:07.704Z,9148.00
2022-08-05T09:46:53.683Z,8956.00
2022-08-05T09:47:56.295Z,8308.00
2022-08-05T09:49:06.541Z,7732.00
2022-08-05T09:50:01.271Z,7092.00
2022-08-05T09:50:52.727Z,6268.00
2022-08-05T09:51:51.696Z,5508.00
2022-08-05T09:52:52.950Z,5512.00
2022-08-05T09:53:53.904Z,6004.00
2022-08-05T09:54:51.683Z,5652.00
2022-08-05T09:55:57.696Z,4776.00
2022-08-05T09:56:52.651Z,4392.00
2022-08-05T09:57:54.615Z,4364.00
2022-08-05T09:58:52.622Z,4364.00
2022-08-05T09:59:51.635Z,4216.00
2022-08-05T10:00:51.611Z,4464.00
2022-08-05T10:01:58.040Z,4808.00
2022-08-05T10:02:53.598Z,4880.00
2022-08-05T10:03:59.659Z,4900.00
2022-08-05T10:04:52.557Z,5044.00
2022-08-05T10:05:51.551Z,5080.00
2022-08-05T10:06:59.036Z,5436.00
2022-08-05T10:08:36.706Z,5712.00
2022-08-05T10:08:55.310Z,5972.00
2022-08-05T10:10:14.662Z,6124.00
2022-08-05T10:10:54.198Z,5856.00
2022-08-05T10:11:51.482Z,5248.00
2022-08-05T10:12:51.615Z,4804.00
2022-08-05T10:13:54.650Z,4640.00
2022-08-05T10:14:54.371Z,4676.00
2022-08-05T10:15:51.444Z,4728.00
2022-08-05T10:16:53.015Z,4928.00
2022-08-05T10:17:54.563Z,5328.00
2022-08-05T10:18:52.398Z,5400.00
2022-08-05T10:20:04.135Z,4944.00
2022-08-05T10:20:53.010Z,4596.00
2022-08-05T10:21:51.469Z,4620.00
2022-08-05T10:22:51.629Z,5080.00
2022-08-05T10:23:59.870Z,5092.00
2022-08-05T10:24:52.334Z,6104.00
2022-08-05T10:25:51.321Z,9176.00
2022-08-05T10:26:52.798Z,13876.00
2022-08-05T10:28:09.341Z,64768.00
2022-08-05T10:28:52.326Z,30208.00
2022-08-05T10:30:41.494Z,30208.00
2022-08-05T10:32:54.070Z,35808.00
2022-08-05T10:33:01.080Z,15780.00
2022-08-05T10:33:01.409Z,22240.00
2022-08-05T10:33:54.329Z,12328.00
2022-08-05T10:34:51.223Z,10348.00
2022-08-05T10:35:52.662Z,8560.00
2022-08-05T10:36:52.201Z,7820.00
2022-08-05T10:37:51.203Z,7564.00
2022-08-05T10:38:51.196Z,6496.00
2022-08-05T10:39:59.047Z,5212.00
2022-08-05T10:40:52.255Z,4160.00
2022-08-05T10:41:52.146Z,3864.00
2022-08-05T10:42:51.140Z,3960.00
2022-08-05T10:43:51.135Z,4108.00
2022-08-05T10:44:51.211Z,4036.00
2022-08-05T10:45:51.101Z,4012.00
2022-08-05T10:46:54.335Z,4124.00
2022-08-05T10:48:29.174Z,4164.00
2022-08-05T10:48:57.849Z,4324.00
2022-08-05T10:50:32.695Z,4460.00
2022-08-05T10:50:52.085Z,4692.00
2022-08-05T10:51:57.577Z,5232.00
2022-08-05T10:52:52.081Z,5772.00
2022-08-05T10:53:52.048Z,6024.00
2022-08-05T10:54:56.489Z,6180.00
2022-08-05T10:56:05.354Z,6496.00
2022-08-05T10:56:52.849Z,6888.00
2022-08-05T10:57:51.218Z,7536.00
2022-08-05T10:58:50.959Z,7808.00
2022-08-05T11:00:03.195Z,8036.00
2022-08-05T11:00:55.324Z,8368.00
2022-08-05T11:01:54.913Z,8408.00
2022-08-05T11:02:51.952Z,8340.00
2022-08-05T11:03:50.956Z,8320.00
2022-08-05T11:04:50.910Z,8328.00
2022-08-05T11:05:50.882Z,8228.00
2022-08-05T11:06:50.871Z,7728.00
2022-08-05T11:08:01.710Z,6848.00
2022-08-05T11:08:51.848Z,5908.00
2022-08-05T11:09:50.853Z,5328.00
2022-08-05T11:11:00.988Z,5228.00
2022-08-05T11:11:53.307Z,5760.00
2022-08-05T11:12:55.164Z,6928.00
2022-08-05T11:13:57.868Z,8640.00
2022-08-05T11:15:11.750Z,11024.00
2022-08-05T11:16:00.937Z,14584.00
2022-08-05T11:16:57.762Z,19552.00
2022-08-05T11:17:59.624Z,30816.00
2022-08-05T11:18:51.799Z,45504.00
2022-08-05T11:20:16.760Z,53472.00
2022-08-05T11:20:51.717Z,50304.00
2022-08-05T11:21:50.706Z,43776.00
2022-08-05T11:22:53.995Z,72288.00
2022-08-05T11:24:04.386Z,112544.00
2022-08-05T11:25:16.389Z,114048.00
2022-08-05T11:26:04.180Z,60416.00
2022-08-05T11:26:51.653Z,109152.00
2022-08-05T11:27:51.975Z,89024.00
2022-08-05T11:28:51.643Z,110752.00
2022-08-05T11:29:50.625Z,110176.00
2022-08-05T11:30:53.349Z,55776.00
2022-08-05T11:31:57.571Z,73568.00
2022-08-05T11:32:51.597Z,109632.00
2022-08-05T11:33:50.595Z,105472.00
2022-08-05T11:34:51.826Z,108448.00
2022-08-05T11:36:04.523Z,104896.00
2022-08-05T11:36:52.794Z,98880.00
2022-08-05T11:38:26.664Z,108864.00
2022-08-05T11:38:52.043Z,25728.00
2022-08-05T11:39:55.380Z,31072.00
2022-08-05T11:40:51.512Z,38848.00
2022-08-05T11:42:01.767Z,29536.00
2022-08-05T11:42:51.493Z,31712.00
2022-08-05T11:44:04.530Z,30400.00
2022-08-05T11:44:54.183Z,30240.00
2022-08-05T11:46:27.532Z,80960.00
2022-08-05T11:47:10.181Z,26624.00
2022-08-05T11:47:54.715Z,48096.00
2022-08-05T11:48:50.578Z,103392.00
2022-08-05T11:49:51.098Z,97472.00
2022-08-05T11:50:50.415Z,103904.00
2022-08-05T11:51:50.405Z,103008.00
2022-08-05T11:52:54.393Z,102496.00
2022-08-05T11:53:51.402Z,99008.00
2022-08-05T11:54:54.731Z,100384.00
2022-08-05T11:55:51.368Z,26336.00
2022-08-05T11:56:52.217Z,92992.00
2022-08-05T11:58:09.240Z,88928.00
2022-08-05T11:58:51.506Z,100704.00
2022-08-05T11:59:50.786Z,97152.00
2022-08-05T12:00:52.779Z,97920.00
2022-08-05T12:01:50.308Z,102560.00
2022-08-05T12:02:50.333Z,44736.00
2022-08-05T12:03:56.034Z,52256.00
2022-08-05T12:04:59.169Z,74496.00
2022-08-05T12:05:51.274Z,105760.00
2022-08-05T12:06:50.266Z,96544.00
2022-08-05T12:08:09.628Z,52064.00
2022-08-05T12:08:51.573Z,39328.00
2022-08-05T12:09:53.344Z,51200.00
2022-08-05T12:10:50.227Z,38880.00
2022-08-05T12:11:50.218Z,31584.00
2022-08-05T12:12:59.357Z,30720.00
2022-08-05T12:13:51.341Z,25632.00
2022-08-05T12:14:50.201Z,61408.00
2022-08-05T12:15:50.451Z,87456.00
2022-08-05T12:16:51.168Z,78144.00
2022-08-05T12:18:03.891Z,33984.00
2022-08-05T12:18:53.349Z,31808.00
2022-08-05T12:20:17.008Z,35552.00